createdAt,value
2022-12-22T00:01:12.578Z,9.70
2022-12-22T00:03:58.254Z,9.80
2022-12-22T00:06:45.443Z,9.80
2022-12-22T00:09:30.928Z,9.80
2022-12-22T00:12:16.337Z,9.80
2022-12-22T00:15:02.383Z,9.90
2022-12-22T00:17:48.557Z,9.90
2022-12-22T00:20:35.487Z,10.00
2022-12-22T00:23:23.033Z,10.00
2022-12-22T00:26:08.574Z,10.00
2022-12-22T00:28:54.555Z,10.10
2022-12-22T00:31:40.705Z,10.10
2022-12-22T00:34:32.797Z,10.10
2022-12-22T00:37:18.628Z,10.00
2022-12-22T00:40:05.694Z,10.00
2022-12-22T00:42:51.268Z,9.90
2022-12-22T00:45:37.371Z,9.90
2022-12-22T00:48:23.997Z,9.90
2022-12-22T00:51:09.528Z,9.80
2022-12-22T00:53:55.444Z,9.70
2022-12-22T00:56:42.578Z,9.60
2022-12-22T00:59:28.846Z,9.60
2022-12-22T01:02:15.128Z,9.50
2022-12-22T01:05:00.766Z,9.50
2022-12-22T01:07:46.249Z,9.40
2022-12-22T01:10:32.247Z,9.30
2022-12-22T01:13:19.399Z,9.30
2022-12-22T01:16:05.450Z,9.30
2022-12-22T01:18:52.777Z,9.30
2022-12-22T01:21:38.694Z,9.30
2022-12-22T01:24:27.803Z,9.20
2022-12-22T01:27:13.203Z,9.20
2022-12-22T01:30:00.364Z,9.10
2022-12-22T01:32:46.470Z,9.00
2022-12-22T01:35:35.981Z,9.00
2022-12-22T01:38:21.534Z,9.10
2022-12-22T01:41:07.551Z,9.10
2022-12-22T01:43:53.429Z,9.10
2022-12-22T01:46:42.248Z,9.10
2022-12-22T01:49:29.863Z,9.10
2022-12-22T01:52:15.875Z,9.10
2022-12-22T01:55:01.988Z,9.20
2022-12-22T01:57:48.640Z,9.20
2022-12-22T02:00:34.669Z,9.20
2022-12-22T02:03:22.562Z,9.30
2022-12-22T02:06:16.228Z,9.40
2022-12-22T02:09:05.765Z,9.40
2022-12-22T02:11:57.995Z,9.50
2022-12-22T02:14:46.614Z,9.50
2022-12-22T02:17:35.683Z,9.50
2022-12-22T02:20:29.124Z,9.50
2022-12-22T02:23:20.153Z,9.50
2022-12-22T02:26:08.675Z,9.50
2022-12-22T02:28:55.896Z,9.40
2022-12-22T02:31:41.550Z,9.30
2022-12-22T02:34:31.436Z,9.30
2022-12-22T02:37:19.905Z,9.30
2022-12-22T02:40:10.088Z,9.30
2022-12-22T02:42:59.984Z,9.40
2022-12-22T02:45:50.752Z,9.40
2022-12-22T02:48:39.269Z,9.40
2022-12-22T02:51:27.301Z,9.40
2022-12-22T02:54:13.725Z,9.50
2022-12-22T02:57:00.355Z,9.50
2022-12-22T02:59:45.953Z,9.40
2022-12-22T03:02:33.123Z,9.30
2022-12-22T03:05:19.408Z,9.30
2022-12-22T03:08:08.561Z,9.30
2022-12-22T03:10:54.803Z,9.20
2022-12-22T03:13:40.925Z,9.30
2022-12-22T03:16:26.584Z,9.30
2022-12-22T03:19:13.746Z,9.30
2022-12-22T03:21:59.462Z,9.40
2022-12-22T03:24:45.017Z,9.30
2022-12-22T03:27:13.374Z,9.30
2022-12-22T03:29:41.760Z,9.20
2022-12-22T03:32:10.225Z,9.20
2022-12-22T03:34:39.921Z,9.20
2022-12-22T03:37:08.316Z,9.30
2022-12-22T03:39:36.753Z,9.40
2022-12-22T03:42:22.700Z,9.40
2022-12-22T03:45:08.315Z,9.40
2022-12-22T03:47:36.690Z,9.50
2022-12-22T03:50:07.098Z,9.60
2022-12-22T03:52:35.440Z,9.60
2022-12-22T03:55:03.773Z,9.60
2022-12-22T03:57:32.149Z,9.60
2022-12-22T04:00:00.660Z,9.70
2022-12-22T04:02:29.127Z,9.70
2022-12-22T04:04:57.711Z,9.70
2022-12-22T04:07:27.478Z,9.70
2022-12-22T04:10:13.096Z,9.60
2022-12-22T04:12:56.343Z,9.60
2022-12-22T04:15:25.463Z,9.60
2022-12-22T04:17:54.154Z,9.60
2022-12-22T04:20:23.414Z,9.50
2022-12-22T04:22:53.384Z,9.60
2022-12-22T04:25:21.771Z,9.60
2022-12-22T04:27:50.217Z,9.60
2022-12-22T04:30:18.987Z,9.60
2022-12-22T04:32:47.369Z,9.60
2022-12-22T04:35:15.694Z,9.60
2022-12-22T04:37:44.072Z,9.60
2022-12-22T04:40:14.564Z,9.40
2022-12-22T04:42:42.931Z,9.30
2022-12-22T04:45:11.805Z,9.10
2022-12-22T04:47:40.387Z,9.00
2022-12-22T04:50:09.361Z,9.00
2022-12-22T04:52:37.749Z,9.00
2022-12-22T04:55:06.874Z,9.00
2022-12-22T04:57:40.566Z,9.20
2022-12-22T05:00:10.768Z,9.10
2022-12-22T05:02:39.314Z,9.00
2022-12-22T05:05:08.328Z,9.00
2022-12-22T05:07:36.742Z,9.00
2022-12-22T05:10:05.489Z,9.00
2022-12-22T05:12:51.288Z,9.00
2022-12-22T05:15:21.304Z,9.00
2022-12-22T05:17:49.769Z,9.10
2022-12-22T05:20:18.345Z,9.00
2022-12-22T05:22:46.638Z,9.10
2022-12-22T05:25:16.618Z,9.10
2022-12-22T05:27:45.068Z,9.20
2022-12-22T05:30:14.074Z,9.20
2022-12-22T05:32:43.828Z,9.20
2022-12-22T05:35:12.249Z,9.30
2022-12-22T05:37:40.602Z,9.40
2022-12-22T05:40:09.468Z,9.40
2022-12-22T05:42:37.896Z,9.40
2022-12-22T05:45:07.937Z,9.40
2022-12-22T05:47:36.693Z,9.40
2022-12-22T05:50:09.704Z,9.40
2022-12-22T05:52:38.391Z,9.40
2022-12-22T05:55:07.404Z,9.40
2022-12-22T05:57:35.905Z,9.50
2022-12-22T06:00:05.386Z,9.60
2022-12-22T06:02:33.952Z,9.60
2022-12-22T06:05:02.719Z,9.50
2022-12-22T06:07:32.489Z,9.50
2022-12-22T06:10:05.076Z,9.40
2022-12-22T06:12:38.090Z,9.40
2022-12-22T06:15:07.125Z,9.20
2022-12-22T06:17:44.379Z,9.20
2022-12-22T06:20:13.678Z,9.10
2022-12-22T06:22:43.411Z,9.10
2022-12-22T06:25:17.543Z,9.10
2022-12-22T06:27:47.433Z,9.10
2022-12-22T06:30:16.125Z,9.10
2022-12-22T06:32:44.524Z,9.10
2022-12-22T06:35:13.047Z,9.10
2022-12-22T06:37:41.499Z,9.20
2022-12-22T06:40:11.856Z,9.20
2022-12-22T06:43:02.163Z,9.20
2022-12-22T06:45:34.379Z,9.20
2022-12-22T06:48:02.978Z,9.20
2022-12-22T06:50:31.453Z,9.20
2022-12-22T06:52:59.832Z,9.20
2022-12-22T06:55:29.605Z,9.20
2022-12-22T06:57:58.005Z,9.30
2022-12-22T07:00:26.658Z,9.30
2022-12-22T07:02:55.372Z,9.30
2022-12-22T07:05:24.612Z,9.40
2022-12-22T07:07:53.195Z,9.50
2022-12-22T07:10:41.713Z,9.60
2022-12-22T07:13:20.571Z,9.70
2022-12-22T07:15:57.607Z,9.70
2022-12-22T07:18:28.527Z,9.80
2022-12-22T07:20:57.028Z,9.80
2022-12-22T07:23:25.393Z,9.90
2022-12-22T07:25:53.962Z,10.00
2022-12-22T07:28:23.798Z,10.10
2022-12-22T07:30:52.621Z,10.10
2022-12-22T07:33:21.018Z,10.20
2022-12-22T07:35:49.424Z,10.30
2022-12-22T07:38:17.809Z,10.50
2022-12-22T07:40:51.700Z,10.50
2022-12-22T07:43:19.469Z,10.50
2022-12-22T07:45:49.387Z,10.60
2022-12-22T07:48:35.548Z,10.60
2022-12-22T07:51:05.576Z,10.60
2022-12-22T07:53:34.955Z,10.70
2022-12-22T07:56:04.605Z,10.70
2022-12-22T07:58:33.249Z,10.70
2022-12-22T08:01:03.171Z,10.70
2022-12-22T08:03:31.541Z,10.70
2022-12-22T08:05:59.955Z,10.70
2022-12-22T08:08:28.300Z,10.70
2022-12-22T08:10:56.714Z,10.70
2022-12-22T08:13:25.147Z,10.70
2022-12-22T08:15:53.581Z,10.60
2022-12-22T08:18:23.408Z,10.60
2022-12-22T08:20:52.089Z,10.60
2022-12-22T08:23:20.498Z,10.70
2022-12-22T08:25:50.375Z,10.70
2022-12-22T08:28:18.790Z,10.70
2022-12-22T08:30:47.215Z,10.70
2022-12-22T08:33:15.686Z,10.70
2022-12-22T08:35:45.671Z,10.80
2022-12-22T08:38:15.326Z,10.80
2022-12-22T08:40:44.423Z,10.90
2022-12-22T08:43:13.542Z,11.00
2022-12-22T08:45:42.510Z,11.00
2022-12-22T08:48:10.878Z,11.10
2022-12-22T08:50:39.236Z,11.20
2022-12-22T08:53:29.707Z,11.20
2022-12-22T08:55:58.358Z,11.30
2022-12-22T08:58:26.679Z,11.30
2022-12-22T09:00:55.195Z,11.40
2022-12-22T09:03:23.724Z,11.40
2022-12-22T09:05:52.099Z,11.40
2022-12-22T09:08:21.864Z,11.40
2022-12-22T09:10:50.315Z,11.50
2022-12-22T09:13:18.709Z,11.50
2022-12-22T09:15:47.058Z,11.60
2022-12-22T09:18:15.534Z,11.70
2022-12-22T09:20:43.918Z,11.70
2022-12-22T09:23:12.300Z,11.70
2022-12-22T09:25:42.056Z,11.70
2022-12-22T09:28:10.463Z,11.70
2022-12-22T09:30:38.801Z,11.80
2022-12-22T09:33:07.182Z,11.90
2022-12-22T09:35:35.564Z,11.90
2022-12-22T09:38:03.961Z,12.00
2022-12-22T09:40:33.114Z,12.10
2022-12-22T09:43:04.296Z,12.30
2022-12-22T09:45:34.008Z,12.30
2022-12-22T09:48:03.369Z,12.40
2022-12-22T09:50:32.782Z,12.50
2022-12-22T09:53:02.574Z,12.50
2022-12-22T09:55:38.638Z,12.60
2022-12-22T09:58:18.341Z,12.60
2022-12-22T10:00:53.011Z,12.70
2022-12-22T10:03:28.893Z,12.70
2022-12-22T10:06:00.180Z,12.80
2022-12-22T10:08:29.503Z,12.90
2022-12-22T10:10:58.114Z,12.90
2022-12-22T10:13:27.824Z,12.90
2022-12-22T10:15:56.532Z,12.90
2022-12-22T10:18:26.488Z,12.90
2022-12-22T10:21:09.661Z,12.90
2022-12-22T10:23:39.811Z,12.90
2022-12-22T10:26:27.901Z,12.90
2022-12-22T10:28:59.814Z,12.90
2022-12-22T10:31:30.315Z,12.90
2022-12-22T10:34:11.166Z,12.90
2022-12-22T10:36:40.075Z,12.90
2022-12-22T10:39:09.842Z,13.00
2022-12-22T10:41:39.530Z,13.10
2022-12-22T10:44:11.143Z,13.10
2022-12-22T10:46:41.394Z,13.20
2022-12-22T10:49:11.741Z,13.30
2022-12-22T10:51:41.104Z,13.40
2022-12-22T10:54:09.525Z,13.50
2022-12-22T10:56:37.938Z,13.60
2022-12-22T10:59:14.883Z,13.70
2022-12-22T11:01:44.843Z,13.80
2022-12-22T11:04:17.957Z,13.80
2022-12-22T11:06:46.916Z,13.90
2022-12-22T11:09:33.161Z,14.00
2022-12-22T11:12:06.860Z,14.10
2022-12-22T11:14:51.476Z,14.20
2022-12-22T11:17:23.712Z,14.20
2022-12-22T11:19:59.645Z,14.20
2022-12-22T11:22:33.042Z,14.30
2022-12-22T11:25:08.230Z,14.30
2022-12-22T11:27:45.738Z,14.30
2022-12-22T11:30:16.659Z,14.40
2022-12-22T11:32:57.269Z,14.50
2022-12-22T11:35:31.510Z,14.70
2022-12-22T11:38:02.992Z,14.90
2022-12-22T11:40:33.077Z,14.90
2022-12-22T11:43:08.157Z,15.00
2022-12-22T11:45:44.815Z,15.10
2022-12-22T11:48:35.431Z,15.10
2022-12-22T11:51:11.682Z,15.20
2022-12-22T11:53:48.384Z,15.20
2022-12-22T11:56:21.230Z,15.30
2022-12-22T11:58:57.141Z,15.50
2022-12-22T12:01:34.358Z,15.40
2022-12-22T12:04:14.704Z,15.50
2022-12-22T12:06:49.652Z,15.50
2022-12-22T12:09:32.161Z,15.50
2022-12-22T12:12:04.012Z,15.40
2022-12-22T12:14:36.549Z,15.40
2022-12-22T12:17:09.555Z,15.30
2022-12-22T12:19:47.016Z,15.30
2022-12-22T12:22:20.687Z,15.20
2022-12-22T12:24:54.904Z,15.20
2022-12-22T12:27:31.282Z,15.20
2022-12-22T12:32:54.700Z,15.10
2022-12-22T12:35:45.981Z,15.20
2022-12-22T12:38:47.942Z,15.20
2022-12-22T12:41:11.368Z,15.20
2022-12-22T12:43:40.514Z,15.30
2022-12-22T12:46:23.786Z,15.20
2022-12-22T12:48:52.182Z,15.30
2022-12-22T12:51:39.048Z,15.30
2022-12-22T12:54:24.904Z,15.10
2022-12-22T12:56:57.071Z,15.10
2022-12-22T12:59:40.289Z,15.30
2022-12-22T13:02:31.679Z,15.60
2022-12-22T13:05:03.937Z,15.70
2022-12-22T13:07:50.948Z,15.60
2022-12-22T13:10:22.265Z,15.80
2022-12-22T13:12:51.781Z,15.70
2022-12-22T13:15:30.845Z,15.70
2022-12-22T13:17:59.995Z,15.80
2022-12-22T13:20:29.937Z,15.70
2022-12-22T13:22:59.552Z,15.70
2022-12-22T13:25:35.366Z,15.60
2022-12-22T13:28:04.804Z,15.60
2022-12-22T13:30:34.107Z,15.70
2022-12-22T13:33:02.704Z,15.70
2022-12-22T13:35:37.436Z,15.80
2022-12-22T13:38:26.908Z,15.80
2022-12-22T13:40:57.898Z,16.00
2022-12-22T13:43:27.433Z,16.10
2022-12-22T13:45:56.587Z,16.00
2022-12-22T13:48:29.253Z,15.80
2022-12-22T13:50:58.920Z,15.80
2022-12-22T13:56:21.686Z,16.20
2022-12-22T13:58:52.920Z,16.10
2022-12-22T14:01:21.499Z,16.10
2022-12-22T14:04:04.863Z,16.10
2022-12-22T14:06:34.343Z,16.10
2022-12-22T14:09:12.545Z,16.10
2022-12-22T14:11:48.967Z,16.10
2022-12-22T14:14:20.762Z,16.00
2022-12-22T14:16:50.019Z,15.90
2022-12-22T14:19:18.867Z,15.90
2022-12-22T14:21:48.488Z,15.90
2022-12-22T14:24:20.476Z,16.00
2022-12-22T14:26:50.915Z,15.90
2022-12-22T14:29:20.571Z,15.80
2022-12-22T14:31:52.723Z,15.70
2022-12-22T14:34:28.402Z,15.80
2022-12-22T14:36:58.494Z,15.70
2022-12-22T14:39:27.572Z,15.70
2022-12-22T14:41:58.415Z,15.60
2022-12-22T14:44:29.137Z,15.60
2022-12-22T14:47:06.395Z,15.60
2022-12-22T14:49:35.590Z,15.60
2022-12-22T14:52:09.520Z,15.50
2022-12-22T14:54:37.971Z,15.50
2022-12-22T14:57:15.999Z,15.40
2022-12-22T14:59:58.450Z,15.30
2022-12-22T15:02:32.185Z,15.30
2022-12-22T15:05:24.124Z,15.30
2022-12-22T15:08:05.225Z,15.20
2022-12-22T15:10:38.277Z,15.20
2022-12-22T15:13:12.685Z,15.20
2022-12-22T15:15:41.098Z,15.10
2022-12-22T15:18:13.459Z,15.10
2022-12-22T15:32:38.300Z,14.50
2022-12-22T15:35:15.480Z,14.40
2022-12-22T15:37:43.939Z,14.30
2022-12-22T15:40:19.859Z,14.30
2022-12-22T15:42:48.404Z,14.30
2022-12-22T15:45:16.946Z,14.30
2022-12-22T15:47:49.655Z,14.30
2022-12-22T15:50:20.015Z,14.30
2022-12-22T15:52:50.253Z,14.30
2022-12-22T15:55:19.525Z,14.20
2022-12-22T15:57:48.498Z,14.10
2022-12-22T16:00:17.321Z,14.10
2022-12-22T16:02:50.350Z,14.10
2022-12-22T16:05:20.270Z,14.10
2022-12-22T16:07:48.683Z,14.10
2022-12-22T16:10:23.763Z,14.00
2022-12-22T16:13:00.131Z,14.00
2022-12-22T16:15:29.851Z,14.00
2022-12-22T16:17:59.885Z,13.90
2022-12-22T16:20:33.013Z,13.80
2022-12-22T16:23:06.524Z,13.70
2022-12-22T16:25:36.530Z,13.60
2022-12-22T16:28:05.868Z,13.60
2022-12-22T16:30:34.884Z,13.60
2022-12-22T16:33:04.705Z,13.60
2022-12-22T16:35:33.879Z,13.60
2022-12-22T16:38:02.248Z,13.70
2022-12-22T16:40:32.343Z,13.60
2022-12-22T16:45:47.639Z,13.70
2022-12-22T16:48:19.972Z,13.70
2022-12-22T16:50:48.657Z,13.60
2022-12-22T16:53:17.040Z,13.50
2022-12-22T16:55:45.568Z,13.60
2022-12-22T16:58:14.390Z,13.60
2022-12-22T17:00:44.081Z,13.50
2022-12-22T17:03:14.369Z,13.50
2022-12-22T17:05:45.570Z,13.60
2022-12-22T17:08:18.115Z,13.60
2022-12-22T17:10:46.469Z,13.50
2022-12-22T17:13:14.951Z,13.40
2022-12-22T17:15:43.546Z,13.40
2022-12-22T17:18:16.415Z,13.30
2022-12-22T17:20:46.629Z,13.30
2022-12-22T17:23:24.692Z,13.40
2022-12-22T17:25:53.209Z,13.40
2022-12-22T17:28:21.637Z,13.30
2022-12-22T17:30:50.554Z,13.30
2022-12-22T17:33:19.107Z,13.30
2022-12-22T17:35:49.798Z,13.20
2022-12-22T17:38:19.782Z,13.10
2022-12-22T17:40:49.107Z,13.20
2022-12-22T17:43:17.970Z,13.10
2022-12-22T17:45:46.787Z,13.20
2022-12-22T17:48:15.961Z,13.00
2022-12-22T17:50:47.743Z,12.90
2022-12-22T17:53:18.864Z,12.80
2022-12-22T17:56:07.853Z,12.70
2022-12-22T17:58:35.983Z,12.60
2022-12-22T18:01:04.457Z,12.60
2022-12-22T18:03:33.946Z,12.60
2022-12-22T18:06:02.395Z,12.60
2022-12-22T18:08:32.228Z,12.60
2022-12-22T18:11:02.371Z,12.60
2022-12-22T18:13:30.734Z,12.60
2022-12-22T18:15:59.385Z,12.60
2022-12-22T18:18:28.066Z,12.50
2022-12-22T18:21:07.410Z,12.50
2022-12-22T18:23:38.376Z,12.50
2022-12-22T18:26:08.411Z,12.50
2022-12-22T18:28:37.123Z,12.60
2022-12-22T18:31:05.846Z,12.60
2022-12-22T18:33:34.318Z,12.60
2022-12-22T18:36:02.901Z,12.60
2022-12-22T18:38:32.691Z,12.70
2022-12-22T18:41:02.536Z,12.60
2022-12-22T18:43:30.894Z,12.60
2022-12-22T18:45:59.271Z,12.50
2022-12-22T18:48:27.602Z,12.50
2022-12-22T18:50:56.003Z,12.50
2022-12-22T18:53:27.453Z,12.50
2022-12-22T18:55:57.717Z,12.50
2022-12-22T18:58:27.570Z,12.50
2022-12-22T19:00:56.349Z,12.40
2022-12-22T19:03:26.138Z,12.40
2022-12-22T19:05:54.586Z,12.30
2022-12-22T19:08:24.097Z,12.30
2022-12-22T19:10:53.089Z,12.30
2022-12-22T19:13:24.089Z,12.30
2022-12-22T19:15:53.971Z,12.40
2022-12-22T19:18:27.108Z,12.40
2022-12-22T19:20:56.557Z,12.40
2022-12-22T19:23:26.443Z,12.40
2022-12-22T19:25:56.407Z,12.40
2022-12-22T19:28:28.460Z,12.40
2022-12-22T19:30:59.003Z,12.40
2022-12-22T19:33:29.461Z,12.50
2022-12-22T19:35:59.168Z,12.50
2022-12-22T19:38:28.688Z,12.50
2022-12-22T19:40:59.862Z,12.50
2022-12-22T19:43:28.545Z,12.60
2022-12-22T19:45:58.544Z,12.60
2022-12-22T19:48:28.076Z,12.60
2022-12-22T19:50:56.531Z,12.60
2022-12-22T19:53:26.661Z,12.60
2022-12-22T19:55:56.492Z,12.60
2022-12-22T19:58:25.693Z,12.50
2022-12-22T20:00:54.543Z,12.40
2022-12-22T20:03:25.668Z,12.40
2022-12-22T20:05:54.465Z,12.40
2022-12-22T20:08:22.891Z,12.30
2022-12-22T20:10:58.151Z,12.30
2022-12-22T20:13:29.216Z,12.30
2022-12-22T20:15:57.655Z,12.30
2022-12-22T20:18:30.406Z,12.30
2022-12-22T20:21:02.989Z,12.20
2022-12-22T20:23:37.151Z,12.20
2022-12-22T20:26:06.634Z,12.10
2022-12-22T20:28:36.138Z,12.10
2022-12-22T20:31:07.554Z,12.10
2022-12-22T20:33:39.514Z,12.10
2022-12-22T20:36:16.460Z,12.10
2022-12-22T20:38:45.441Z,12.10
2022-12-22T20:41:13.749Z,12.10
2022-12-22T20:43:42.222Z,12.10
2022-12-22T20:46:13.412Z,12.10
2022-12-22T20:48:44.956Z,12.10
2022-12-22T20:51:16.204Z,12.10
2022-12-22T20:53:45.209Z,12.10
2022-12-22T20:56:18.839Z,12.10
2022-12-22T20:58:47.596Z,12.00
2022-12-22T21:01:16.172Z,12.00
2022-12-22T21:03:46.132Z,12.00
2022-12-22T21:06:25.396Z,12.10
2022-12-22T21:08:54.525Z,12.10
2022-12-22T21:11:23.197Z,12.10
2022-12-22T21:13:51.653Z,12.10
2022-12-22T21:16:23.115Z,12.10
2022-12-22T21:18:53.556Z,12.10
2022-12-22T21:21:22.257Z,12.10
2022-12-22T21:23:50.762Z,12.10
2022-12-22T21:26:21.845Z,12.20
2022-12-22T21:28:50.439Z,12.20
2022-12-22T21:31:18.891Z,12.20
2022-12-22T21:33:47.381Z,12.30
2022-12-22T21:36:19.197Z,12.30
2022-12-22T21:38:47.905Z,12.20
2022-12-22T21:41:16.247Z,12.30
2022-12-22T21:43:44.868Z,12.30
2022-12-22T21:46:13.857Z,12.30
2022-12-22T21:48:42.344Z,12.40
2022-12-22T21:51:13.011Z,12.40
2022-12-22T21:53:42.812Z,12.40
2022-12-22T21:56:17.383Z,12.30
2022-12-22T21:58:45.810Z,12.30
2022-12-22T22:01:14.935Z,12.40
2022-12-22T22:03:43.835Z,12.30
2022-12-22T22:06:12.307Z,12.40
2022-12-22T22:08:42.049Z,12.30
2022-12-22T22:11:16.993Z,12.40
2022-12-22T22:13:45.449Z,12.40
2022-12-22T22:16:13.872Z,12.30
2022-12-22T22:18:42.567Z,12.40
2022-12-22T22:21:11.512Z,12.40
2022-12-22T22:23:39.916Z,12.40
2022-12-22T22:26:11.366Z,12.40
2022-12-22T22:28:39.799Z,12.40
2022-12-22T22:31:12.114Z,12.40
2022-12-22T22:33:40.581Z,12.40
2022-12-22T22:36:09.568Z,12.30
2022-12-22T22:38:37.995Z,12.30
2022-12-22T22:41:06.504Z,12.30
2022-12-22T22:43:36.270Z,12.30
2022-12-22T22:46:04.707Z,12.30
2022-12-22T22:48:33.142Z,12.30
2022-12-22T22:51:01.507Z,12.40
2022-12-22T22:53:30.831Z,12.30
2022-12-22T22:56:02.519Z,12.30
2022-12-22T22:58:31.005Z,12.30
2022-12-22T23:01:06.379Z,12.30
2022-12-22T23:03:34.935Z,12.30
2022-12-22T23:06:03.476Z,12.30
2022-12-22T23:08:33.379Z,12.30
2022-12-22T23:11:02.073Z,12.30
2022-12-22T23:13:30.828Z,12.30
2022-12-22T23:16:00.144Z,12.30
2022-12-22T23:18:30.497Z,12.30
2022-12-22T23:20:59.029Z,12.30
2022-12-22T23:23:27.443Z,12.20
2022-12-22T23:25:56.073Z,12.20
2022-12-22T23:28:24.711Z,12.20
2022-12-22T23:30:53.756Z,12.20
2022-12-22T23:33:22.277Z,12.10
2022-12-22T23:35:52.593Z,12.10
2022-12-22T23:38:21.850Z,12.10
2022-12-22T23:40:53.482Z,12.00
2022-12-22T23:43:22.653Z,12.00
2022-12-22T23:45:51.098Z,12.10
2022-12-22T23:48:19.533Z,12.10
2022-12-22T23:50:48.034Z,12.10
2022-12-22T23:53:18.019Z,12.10
2022-12-22T23:55:46.797Z,12.10
2022-12-22T23:58:15.342Z,12.00
